Time;durP1;ratioP1;P1;durP2;ratioP2;P2;SDS_P1;SDS_P2;PMS_P1;PMS_P2;Temp;Humidity;BMP_temperature;BMP_pressure;BME280_temperature;BME280_humidity;BME280_pressure;Samples;Min_cycle;Max_cycle;Signal;HPM_P1;HPM_P2
2022/09/12 00:01:44;;;;;;;6.20;5.70;;;14.60;1.00;;;;;;6105202;23;20500;-79
2022/09/12 00:04:16;;;;;;;6.43;5.40;;;14.60;1.00;;;;;;6105479;23;20471;-79
2022/09/12 00:06:43;;;;;;;6.10;5.50;;;14.60;1.00;;;;;;6087848;23;21303;-75
2022/09/12 00:09:16;;;;;;;5.37;4.90;;;14.60;1.00;;;;;;6105265;23;20555;-78
2022/09/12 00:11:48;;;;;;;6.07;5.47;;;14.50;1.00;;;;;;6104940;23;21111;-77
2022/09/12 00:14:18;;;;;;;5.93;5.30;;;14.50;1.00;;;;;;6104417;23;20447;-78
2022/09/12 00:16:51;;;;;;;6.10;5.50;;;14.50;1.00;;;;;;6105975;23;20412;-77
2022/09/12 00:19:19;;;;;;;6.10;5.60;;;14.50;1.00;;;;;;6103842;23;20454;-77
2022/09/12 00:21:46;;;;;;;7.20;6.20;;;14.50;1.00;;;;;;6106279;23;21156;-76
2022/09/12 00:24:14;;;;;;;7.23;6.50;;;14.50;1.00;;;;;;6090410;23;20480;-77
2022/09/12 00:26:43;;;;;;;6.13;5.53;;;14.40;1.00;;;;;;6105376;23;20408;-77
2022/09/12 00:29:15;;;;;;;6.27;5.67;;;14.40;1.00;;;;;;6104530;23;20448;-77
2022/09/12 00:31:42;;;;;;;6.43;5.60;;;14.40;1.00;;;;;;6093090;23;20496;-78
2022/09/12 00:34:10;;;;;;;6.13;5.53;;;14.30;1.00;;;;;;6104545;23;20456;-76
2022/09/12 00:36:39;;;;;;;5.80;5.20;;;14.30;1.00;;;;;;6103856;23;20831;-76
2022/09/12 00:39:09;;;;;;;5.50;4.87;;;14.20;1.00;;;;;;6104015;23;20432;-76
2022/09/12 00:41:41;;;;;;;5.40;4.90;;;14.20;1.00;;;;;;6102950;23;20798;-76
2022/09/12 00:44:43;;;;;;;6.20;5.00;;;14.20;1.00;;;;;;6104108;23;20602;-77
2022/09/12 00:47:16;;;;;;;5.97;5.43;;;14.20;1.00;;;;;;6102421;23;20495;-78
2022/09/12 00:49:47;;;;;;;5.37;4.87;;;14.20;1.00;;;;;;6101564;23;20424;-77
2022/09/12 00:52:19;;;;;;;5.77;5.27;;;14.10;1.00;;;;;;6102692;23;20420;-77
2022/09/12 00:54:52;;;;;;;5.83;5.33;;;14.10;1.00;;;;;;6104439;23;20469;-78
2022/09/12 00:57:23;;;;;;;6.10;5.43;;;14.10;1.00;;;;;;6102957;23;20436;-78
2022/09/12 00:59:56;;;;;;;6.30;5.20;;;14.10;1.00;;;;;;6105229;23;20416;-78
2022/09/12 01:02:26;;;;;;;5.83;5.30;;;14.10;1.00;;;;;;6103619;23;20417;-78
2022/09/12 01:04:54;;;;;;;4.63;4.20;;;14.10;1.00;;;;;;6088619;23;20435;-77
2022/09/12 01:07:24;;;;;;;5.83;5.33;;;14.10;1.00;;;;;;6103267;23;20484;-79
2022/09/12 01:09:54;;;;;;;6.83;4.70;;;14.10;1.00;;;;;;6104368;23;20495;-77
2022/09/12 01:12:22;;;;;;;5.73;5.13;;;14.00;1.00;;;;;;6104393;23;20428;-77
2022/09/12 01:14:49;;;;;;;6.60;5.90;;;14.00;1.00;;;;;;6104782;23;20432;-77
2022/09/12 01:17:18;;;;;;;5.57;5.07;;;14.10;1.00;;;;;;6105103;23;20495;-76
2022/09/12 01:20:38;;;;;;;7.60;5.60;;;14.10;1.00;;;;;;6104509;23;20444;-77
2022/09/12 01:23:38;;;;;;;6.00;5.50;;;14.00;1.00;;;;;;6104310;23;20452;-77
2022/09/12 01:26:24;;;;;;;5.83;5.03;;;14.00;1.00;;;;;;6091813;23;20450;-77
2022/09/12 01:29:17;;;;;;;5.30;4.80;;;13.90;1.00;;;;;;6105494;23;20416;-76
2022/09/12 01:32:08;;;;;;;5.73;5.23;;;13.90;1.00;;;;;;6104289;23;20515;-77
2022/09/12 01:34:49;;;;;;;5.70;4.97;;;14.00;1.00;;;;;;6087915;23;20416;-77
2022/09/12 01:37:33;;;;;;;8.27;5.53;;;14.00;1.00;;;;;;6102901;23;20459;-77
2022/09/12 01:40:10;;;;;;;5.30;4.80;;;14.00;1.00;;;;;;6103962;23;20401;-77
2022/09/12 01:42:50;;;;;;;6.13;5.10;;;13.90;1.00;;;;;;6104095;23;21200;-76
2022/09/12 01:45:26;;;;;;;6.50;5.03;;;13.90;1.00;;;;;;6103308;23;21104;-76
2022/09/12 01:48:03;;;;;;;6.80;6.17;;;13.80;1.00;;;;;;6104244;23;20535;-76
2022/09/12 01:50:34;;;;;;;6.20;5.50;;;13.80;1.00;;;;;;6102581;23;20956;-76
2022/09/12 01:53:05;;;;;;;6.10;5.50;;;13.80;1.00;;;;;;6104071;23;20767;-78
2022/09/12 01:55:41;;;;;;;6.47;5.23;;;13.80;1.00;;;;;;6103415;23;20417;-76
2022/09/12 01:58:18;;;;;;;6.20;4.97;;;13.70;1.00;;;;;;6104375;23;20569;-77
2022/09/12 02:00:51;;;;;;;5.90;5.30;;;13.70;1.00;;;;;;6103888;23;20909;-76
2022/09/12 02:03:28;;;;;;;5.93;5.43;;;13.70;1.00;;;;;;6102471;23;20523;-76
2022/09/12 02:06:02;;;;;;;6.80;5.20;;;13.60;1.00;;;;;;6103978;23;20803;-76
2022/09/12 02:08:32;;;;;;;6.27;5.67;;;13.60;1.00;;;;;;6102544;23;20448;-77
2022/09/12 02:11:03;;;;;;;5.87;5.27;;;13.50;1.00;;;;;;6088236;23;20894;-77
2022/09/12 02:13:36;;;;;;;6.60;5.60;;;13.50;1.00;;;;;;6101575;23;20515;-77
2022/09/12 02:16:17;;;;;;;6.77;5.97;;;13.50;1.00;;;;;;6104094;23;20495;-79
2022/09/12 02:19:03;;;;;;;6.50;5.90;;;13.40;1.00;;;;;;6103737;23;20829;-79
2022/09/12 02:21:37;;;;;;;5.83;5.33;;;13.30;1.00;;;;;;6102281;23;20425;-77
2022/09/12 02:24:08;;;;;;;6.27;5.40;;;13.40;1.00;;;;;;6104361;23;20427;-77
2022/09/12 02:26:42;;;;;;;6.73;5.70;;;13.30;1.00;;;;;;6102358;23;20431;-77
2022/09/12 02:29:09;;;;;;;6.23;5.60;;;13.40;1.00;;;;;;6104436;23;20903;-77
2022/09/12 02:31:44;;;;;;;7.27;5.80;;;13.40;1.00;;;;;;6102678;23;20416;-77
2022/09/12 02:34:26;;;;;;;5.87;5.37;;;13.40;1.00;;;;;;6104079;23;21023;-80
2022/09/12 02:37:07;;;;;;;6.03;5.43;;;13.40;1.00;;;;;;6102679;23;20424;-78
2022/09/12 02:39:39;;;;;;;7.13;5.87;;;13.40;1.00;;;;;;6102980;23;20440;-77
2022/09/12 02:42:18;;;;;;;7.10;6.40;;;13.40;1.00;;;;;;6103649;23;20416;-78
2022/09/12 02:44:48;;;;;;;7.10;6.37;;;13.40;1.00;;;;;;6103148;23;20420;-78
2022/09/12 02:47:19;;;;;;;7.57;6.83;;;13.40;1.00;;;;;;6088168;23;20435;-77
2022/09/12 02:50:02;;;;;;;;;;;;;;;;;;;;;
2022/09/12 02:52:29;;;;;;;6.63;6.03;;;13.40;1.00;;;;;;6101104;23;40554;-77
2022/09/12 02:54:58;;;;;;;9.23;7.40;;;13.50;1.00;;;;;;6106364;23;20432;-77
2022/09/12 02:57:29;;;;;;;9.27;7.93;;;13.40;1.00;;;;;;6104356;23;20484;-78
2022/09/12 03:00:01;;;;;;;6.87;6.17;;;13.40;1.00;;;;;;6107792;23;20492;-75
2022/09/12 03:02:39;;;;;;;7.10;6.50;;;13.40;1.00;;;;;;6107121;23;20416;-77
2022/09/12 03:05:20;;;;;;;6.30;5.70;;;13.40;1.00;;;;;;6106230;23;20432;-77
2022/09/12 03:08:10;;;;;;;7.53;6.67;;;13.40;1.00;;;;;;6106356;23;20440;-77
2022/09/12 03:10:52;;;;;;;9.20;6.60;;;13.40;1.00;;;;;;6107397;23;20824;-78
2022/09/12 03:16:16;;;;;;;7.33;6.73;;;13.30;1.00;;;;;;6105525;23;20948;-78
2022/09/12 03:18:51;;;;;;;7.63;6.93;;;13.30;1.00;;;;;;6104553;23;20504;-78
2022/09/12 03:21:30;;;;;;;8.07;7.27;;;13.30;1.00;;;;;;6104320;23;20463;-77
2022/09/12 03:24:08;;;;;;;8.20;7.40;;;13.10;1.00;;;;;;6105959;23;20475;-79
2022/09/12 03:26:41;;;;;;;9.43;7.53;;;13.10;1.00;;;;;;6091071;23;20455;-78
2022/09/12 03:29:10;;;;;;;9.60;7.47;;;13.10;1.00;;;;;;6105951;23;20516;-77
2022/09/12 03:31:38;;;;;;;8.10;7.00;;;13.10;1.00;;;;;;6105307;23;20424;-78
2022/09/12 03:34:11;;;;;;;9.17;7.67;;;13.10;1.00;;;;;;6105719;23;20472;-77
2022/09/12 03:36:40;;;;;;;8.43;7.53;;;13.00;1.00;;;;;;6104882;23;21222;-78
2022/09/12 03:39:09;;;;;;;9.90;8.57;;;13.00;1.00;;;;;;6107100;23;20420;-78
2022/09/12 03:41:38;;;;;;;10.27;8.30;;;13.00;1.00;;;;;;6109304;23;20440;-79
2022/09/12 03:44:09;;;;;;;11.43;9.57;;;13.00;1.00;;;;;;6115429;23;20393;-80
2022/09/12 03:52:10;;;;;;;7.80;7.10;;;12.90;1.00;;;;;;6095820;23;20408;-79
2022/09/12 03:54:39;;;;;;;9.63;8.63;;;12.90;1.00;;;;;;6113699;23;20417;-80
2022/09/12 03:57:18;;;;;;;9.53;7.93;;;12.90;1.00;;;;;;6115755;23;20404;-79
2022/09/12 03:59:49;;;;;;;8.40;7.60;;;12.90;1.00;;;;;;6111210;23;20428;-78
2022/09/12 04:02:18;;;;;;;9.17;8.20;;;12.90;1.00;;;;;;6109241;23;20413;-79
2022/09/12 04:04:49;;;;;;;9.37;8.47;;;12.90;1.00;;;;;;6113234;23;20472;-78
2022/09/12 04:07:20;;;;;;;9.13;7.40;;;12.90;1.00;;;;;;6111618;23;20397;-79
2022/09/12 04:10:05;;;;;;;12.53;8.63;;;12.90;1.00;;;;;;6114343;23;20404;-77
2022/09/12 04:12:34;;;;;;;8.50;7.60;;;12.90;1.00;;;;;;6112231;23;20404;-77
2022/09/12 04:15:01;;;;;;;12.47;8.50;;;12.90;1.00;;;;;;6097944;23;20445;-78
2022/09/12 04:17:28;;;;;;;10.90;9.23;;;13.00;1.00;;;;;;6111019;23;20452;-78
2022/09/12 04:19:58;;;;;;;11.23;8.50;;;13.00;1.00;;;;;;6112370;23;20471;-79
2022/09/12 04:22:31;;;;;;;12.50;8.97;;;13.10;1.00;;;;;;6114431;23;20404;-80
2022/09/12 04:25:16;;;;;;;13.70;11.37;;;13.10;1.00;;;;;;6111383;23;20773;-78
2022/09/12 04:27:43;;;;;;;9.23;8.23;;;13.00;1.00;;;;;;6097192;23;20498;-78
2022/09/12 04:30:10;;;;;;;9.53;7.90;;;13.00;1.00;;;;;;6110948;23;20392;-80
2022/09/12 04:32:39;;;;;;;12.47;9.17;;;13.00;1.00;;;;;;6110123;23;20455;-79
2022/09/12 04:35:12;;;;;;;9.80;8.80;;;13.00;1.00;;;;;;6110326;23;20393;-79
2022/09/12 04:37:43;;;;;;;11.27;10.17;;;12.90;1.00;;;;;;6108132;23;20427;-78
2022/09/12 04:40:12;;;;;;;10.73;9.10;;;12.80;1.00;;;;;;6109664;23;20519;-78
2022/09/12 04:42:39;;;;;;;14.67;9.80;;;12.80;1.00;;;;;;6107461;23;20528;-81
2022/09/12 04:45:17;;;;;;;11.77;8.70;;;12.80;1.00;;;;;;6109963;23;20433;-79
2022/09/12 04:47:45;;;;;;;9.10;8.20;;;12.90;1.00;;;;;;6106092;23;21198;-79
2022/09/12 04:50:13;;;;;;;11.03;9.30;;;12.80;1.00;;;;;;6115935;23;20425;-81
2022/09/12 04:52:43;;;;;;;11.70;9.53;;;12.80;1.00;;;;;;6114861;23;20434;-78
2022/09/12 04:55:12;;;;;;;13.33;9.60;;;12.80;1.00;;;;;;6113777;23;20503;-77
2022/09/12 04:57:40;;;;;;;10.33;9.23;;;12.90;1.00;;;;;;6115083;23;20464;-79
2022/09/12 05:00:13;;;;;;;11.67;10.47;;;12.90;1.00;;;;;;6113230;23;20377;-78
2022/09/12 05:02:42;;;;;;;9.70;8.70;;;13.00;1.00;;;;;;6110748;23;20485;-78
2022/09/12 05:05:12;;;;;;;12.40;9.00;;;13.10;1.00;;;;;;6094826;23;20460;-78
2022/09/12 05:07:53;;;;;;;10.67;9.67;;;13.10;1.00;;;;;;6083197;23;20420;-77
2022/09/12 05:10:22;;;;;;;13.43;10.03;;;13.10;1.00;;;;;;6114156;23;20499;-80
2022/09/12 05:13:00;;;;;;;13.87;10.60;;;13.10;1.00;;;;;;6086807;23;20436;-78
2022/09/12 05:15:27;;;;;;;12.70;9.00;;;13.10;1.00;;;;;;6080386;23;21714;-77
2022/09/12 05:17:55;;;;;;;12.50;9.53;;;13.20;1.00;;;;;;6109929;23;20416;-79
2022/09/12 05:20:28;;;;;;;10.60;9.50;;;13.20;1.00;;;;;;6096098;23;20463;-77
2022/09/12 05:23:05;;;;;;;11.13;9.83;;;13.20;1.00;;;;;;6078976;23;20404;-78
2022/09/12 05:25:32;;;;;;;12.47;9.57;;;13.20;1.00;;;;;;6041676;23;20486;-80
2022/09/12 05:28:02;;;;;;;13.77;10.93;;;13.30;1.00;;;;;;6023441;23;21564;-81
2022/09/12 05:30:28;;;;;;;16.07;14.50;;;13.50;1.00;;;;;;5996378;23;20471;-81
2022/09/12 05:33:05;;;;;;;13.30;11.40;;;13.50;1.00;;;;;;6008064;23;20542;-81
2022/09/12 05:35:32;;;;;;;14.70;11.10;;;13.60;1.00;;;;;;6020931;23;20608;-82
2022/09/12 05:38:05;;;;;;;15.63;12.03;;;13.70;1.00;;;;;;6011901;23;20951;-78
2022/09/12 05:40:32;;;;;;;12.77;11.10;;;13.80;1.00;;;;;;6020203;23;20771;-80
2022/09/12 05:43:05;;;;;;;10.67;9.53;;;13.90;1.00;;;;;;6009569;23;20421;-79
2022/09/12 05:45:31;;;;;;;13.90;9.70;;;14.00;1.00;;;;;;6021184;23;20446;-78
2022/09/12 05:48:05;;;;;;;10.57;9.37;;;14.00;1.00;;;;;;6021331;23;20409;-80
2022/09/12 05:50:32;;;;;;;15.23;11.53;;;14.10;1.00;;;;;;5955451;23;20418;-85
2022/09/12 05:53:04;;;;;;;40.73;27.77;;;14.20;1.00;;;;;;6050004;23;20436;-85
2022/09/12 05:55:34;;;;;;;13.90;11.53;;;14.20;1.00;;;;;;6030446;23;20391;-84
2022/09/12 05:58:02;;;;;;;11.07;10.00;;;14.30;1.00;;;;;;6016809;23;20483;-79
2022/09/12 06:00:32;;;;;;;12.70;11.40;;;14.30;1.00;;;;;;6025667;23;20404;-76
2022/09/12 06:03:09;;;;;;;11.30;9.77;;;14.40;1.00;;;;;;6023845;23;20466;-76
2022/09/12 06:05:40;;;;;;;14.03;10.63;;;14.50;1.00;;;;;;6019861;23;20430;-77
2022/09/12 06:08:12;;;;;;;10.47;9.00;;;14.50;1.00;;;;;;6023906;23;20427;-81
2022/09/12 06:10:41;;;;;;;11.40;10.20;;;14.60;1.00;;;;;;6025244;23;20403;-80
2022/09/12 06:13:13;;;;;;;13.37;10.60;;;14.70;1.00;;;;;;6011626;23;20459;-84
2022/09/12 06:15:43;;;;;;;27.03;24.50;;;14.70;1.00;;;;;;6032798;23;20409;-79
2022/09/12 06:18:12;;;;;;;21.60;16.50;;;14.70;1.00;;;;;;6024310;23;20395;-85
2022/09/12 06:20:42;;;;;;;14.67;12.60;;;14.80;1.00;;;;;;6027608;23;20465;-83
2022/09/12 06:23:14;;;;;;;13.37;10.73;;;14.90;1.00;;;;;;6026673;23;20466;-81
2022/09/12 06:25:47;;;;;;;17.27;12.20;;;14.90;1.00;;;;;;6002791;23;21258;-77
2022/09/12 06:28:13;;;;;;;21.30;13.00;;;15.00;1.00;;;;;;6082153;23;21036;-77
2022/09/12 06:30:42;;;;;;;18.30;13.87;;;15.10;1.00;;;;;;6081746;23;20402;-77
2022/09/12 06:33:12;;;;;;;14.90;11.23;;;15.10;1.00;;;;;;6081236;23;20436;-82
2022/09/12 06:36:05;;;;;;;;;;;;;;;;;;;;;
2022/09/12 06:38:43;;;;;;;20.50;12.80;;;15.40;1.00;;;;;;6079142;23;39717;-76
2022/09/12 06:41:13;;;;;;;19.80;14.13;;;15.50;1.00;;;;;;6037081;23;20449;-82
2022/09/12 06:43:45;;;;;;;16.63;12.50;;;15.60;1.00;;;;;;6082231;23;20461;-86
2022/09/12 06:46:12;;;;;;;20.40;15.73;;;15.60;1.00;;;;;;6058775;23;20918;-78
2022/09/12 06:48:44;;;;;;;11.63;9.90;;;15.70;1.00;;;;;;6071063;23;20469;-78
2022/09/12 06:51:13;;;;;;;12.60;10.77;;;15.90;1.00;;;;;;6084216;23;20922;-86
2022/09/12 06:53:43;;;;;;;14.93;10.30;;;15.90;1.00;;;;;;6081867;23;20437;-85
2022/09/12 06:56:12;;;;;;;16.10;10.13;;;16.00;1.00;;;;;;6055992;23;20482;-83
2022/09/12 06:58:42;;;;;;;11.90;9.50;;;16.00;1.00;;;;;;6083226;23;20429;-85
2022/09/12 07:01:13;;;;;;;13.13;9.70;;;16.10;1.00;;;;;;6079338;23;20447;-83
2022/09/12 07:03:45;;;;;;;13.00;9.60;;;16.10;1.00;;;;;;6055150;23;20831;-84
2022/09/12 07:06:17;;;;;;;11.40;10.20;;;16.20;1.00;;;;;;6067749;23;20414;-83
2022/09/12 07:08:50;;;;;;;13.60;10.43;;;16.40;1.00;;;;;;6082357;23;20465;-85
2022/09/12 07:11:19;;;;;;;10.10;9.20;;;16.40;1.00;;;;;;6081810;23;20390;-84
2022/09/12 07:13:49;;;;;;;13.50;9.23;;;16.60;1.00;;;;;;6080758;23;20425;-86
2022/09/12 07:16:18;;;;;;;10.87;9.77;;;16.70;1.00;;;;;;6080648;23;20804;-84
2022/09/12 07:18:52;;;;;;;12.27;11.17;;;16.70;1.00;;;;;;6069638;23;20596;-84
2022/09/12 07:21:19;;;;;;;12.07;10.43;;;16.80;1.00;;;;;;6081974;23;20441;-84
2022/09/12 07:23:54;;;;;;;11.30;9.43;;;16.90;1.00;;;;;;6078441;23;20405;-84
2022/09/12 07:26:21;;;;;;;9.90;8.40;;;17.00;1.00;;;;;;6080486;23;20395;-85
2022/09/12 07:28:53;;;;;;;11.07;8.93;;;17.10;1.00;;;;;;6064256;23;20431;-84
2022/09/12 07:31:23;;;;;;;9.17;8.13;;;17.20;1.00;;;;;;6075802;23;20844;-84
2022/09/12 07:33:55;;;;;;;11.60;8.20;;;17.30;1.00;;;;;;6078859;23;20433;-84
2022/09/12 07:36:25;;;;;;;11.10;8.23;;;17.40;1.00;;;;;;6026443;23;20877;-86
2022/09/12 07:39:02;;;;;;;11.60;7.60;;;17.50;1.00;;;;;;6068529;23;20433;-85
2022/09/12 07:41:31;;;;;;;9.07;8.10;;;17.60;1.00;;;;;;6067982;23;20413;-85
2022/09/12 07:44:02;;;;;;;12.03;8.40;;;17.70;1.00;;;;;;6084830;23;20422;-83
2022/09/12 07:46:32;;;;;;;9.10;7.63;;;17.80;1.00;;;;;;6066535;23;20398;-84
2022/09/12 07:49:02;;;;;;;11.37;7.40;;;17.90;1.00;;;;;;6080214;23;20496;-82
2022/09/12 07:51:30;;;;;;;7.73;5.90;;;17.90;1.00;;;;;;6078738;23;21131;-84
2022/09/12 07:53:59;;;;;;;8.70;5.93;;;18.00;1.00;;;;;;6084216;23;20449;-84
2022/09/12 07:56:28;;;;;;;10.70;6.47;;;18.10;1.00;;;;;;6052728;23;20460;-84
2022/09/12 07:58:55;;;;;;;7.23;6.40;;;18.10;1.00;;;;;;6080240;23;20509;-84
2022/09/12 08:01:24;;;;;;;7.83;6.63;;;18.10;1.00;;;;;;6078359;23;20437;-84
2022/09/12 08:03:56;;;;;;;11.60;7.97;;;18.20;1.00;;;;;;6080643;23;20438;-81
2022/09/12 08:06:24;;;;;;;12.90;7.67;;;18.30;1.00;;;;;;6079194;23;20405;-84
2022/09/12 08:08:56;;;;;;;9.30;8.40;;;18.40;1.00;;;;;;6068008;23;20396;-86
2022/09/12 08:11:26;;;;;;;14.30;7.93;;;18.40;1.00;;;;;;6068089;23;20445;-84
2022/09/12 08:14:04;;;;;;;7.80;6.97;;;18.40;1.00;;;;;;6053852;23;20417;-85
2022/09/12 08:16:35;;;;;;;10.00;6.30;;;18.60;1.00;;;;;;6025640;23;20404;-86
2022/09/12 08:19:04;;;;;;;7.30;6.50;;;18.70;1.00;;;;;;6043593;23;20416;-85
2022/09/12 08:21:38;;;;;;;7.70;5.60;;;18.80;1.00;;;;;;6027697;23;20401;-84
2022/09/12 08:24:06;;;;;;;8.37;6.67;;;19.00;1.00;;;;;;6040756;23;20429;-84
2022/09/12 08:26:37;;;;;;;9.17;5.50;;;19.20;1.00;;;;;;6065797;23;20398;-85
2022/09/12 08:29:05;;;;;;;7.60;6.33;;;19.30;1.00;;;;;;6084015;23;20425;-87
2022/09/12 08:31:35;;;;;;;7.47;5.70;;;19.40;1.00;;;;;;6079036;23;21810;-84
2022/09/12 08:34:04;;;;;;;6.20;5.43;;;19.60;1.00;;;;;;6079915;23;20441;-86
2022/09/12 08:36:31;;;;;;;7.87;4.97;;;19.90;1.00;;;;;;6081034;23;20849;-83
2022/09/12 08:39:00;;;;;;;6.67;5.63;;;20.00;1.00;;;;;;6080871;23;20415;-81
2022/09/12 08:41:29;;;;;;;8.60;6.53;;;20.00;1.00;;;;;;6077961;23;20433;-87
2022/09/12 08:44:27;;;;;;;10.30;6.40;;;20.10;1.00;;;;;;6082620;23;20453;-83
2022/09/12 08:47:12;;;;;;;6.43;5.50;;;20.00;1.00;;;;;;6020189;23;20417;-82
2022/09/12 08:49:48;;;;;;;7.43;5.20;;;19.90;1.00;;;;;;6081137;23;20421;-87
2022/09/12 08:52:21;;;;;;;5.60;4.13;;;19.90;1.00;;;;;;6083023;23;20393;-86
2022/09/12 08:54:49;;;;;;;5.27;4.30;;;19.90;1.00;;;;;;6080116;23;20445;-85
2022/09/12 08:57:20;;;;;;;7.50;4.83;;;20.10;1.00;;;;;;6081113;23;20398;-84
2022/09/12 08:59:49;;;;;;;5.97;4.47;;;20.30;1.00;;;;;;6081536;23;20445;-85
2022/09/12 09:02:57;;;;;;;7.27;4.70;;;20.70;1.00;;;;;;6083987;23;20400;-86
2022/09/12 09:05:37;;;;;;;7.40;4.53;;;20.80;1.00;;;;;;6051520;23;20444;-86
2022/09/12 09:08:30;;;;;;;5.33;2.70;;;20.90;1.00;;;;;;6083765;23;20421;-85
2022/09/12 09:11:04;;;;;;;7.30;5.10;;;21.00;1.00;;;;;;6082913;23;20410;-87
2022/09/12 09:16:33;;;;;;;6.03;3.10;;;21.60;1.00;;;;;;6082414;23;20429;-84
2022/09/12 09:19:05;;;;;;;4.40;2.77;;;23.00;1.00;;;;;;6056578;23;20496;-84
2022/09/12 09:21:38;;;;;;;7.53;3.73;;;24.90;1.00;;;;;;6070515;23;20457;-84
2022/09/12 09:24:11;;;;;;;5.30;3.10;;;26.60;1.00;;;;;;6083011;23;20441;-86
2022/09/12 09:26:46;;;;;;;5.57;2.67;;;27.40;1.00;;;;;;6084221;23;20501;-83
2022/09/12 09:29:18;;;;;;;4.33;1.70;;;27.60;1.00;;;;;;6053690;23;20455;-83
2022/09/12 09:31:48;;;;;;;7.57;3.13;;;27.60;1.00;;;;;;6081446;23;20439;-84
2022/09/12 09:34:19;;;;;;;7.87;4.23;;;26.50;1.00;;;;;;6081069;23;20469;-85
2022/09/12 09:36:55;;;;;;;6.97;1.97;;;25.20;1.00;;;;;;6057991;23;20441;-80
2022/09/12 09:39:41;;;;;;;6.70;2.20;;;24.10;1.00;;;;;;6080264;23;20902;-84
2022/09/12 09:42:18;;;;;;;6.00;2.13;;;23.40;1.00;;;;;;6082065;23;20412;-81
2022/09/12 09:44:47;;;;;;;8.60;4.40;;;22.70;1.00;;;;;;6082288;23;20421;-84
2022/09/12 09:47:17;;;;;;;6.73;3.80;;;22.30;1.00;;;;;;6068202;23;20421;-83
2022/09/12 09:49:44;;;;;;;8.50;2.67;;;22.20;1.00;;;;;;6082129;23;20433;-84
2022/09/12 09:52:16;;;;;;;7.30;2.30;;;23.40;1.00;;;;;;6079906;23;20429;-84
2022/09/12 09:54:49;;;;;;;5.90;2.07;;;25.70;1.00;;;;;;6079820;23;20435;-83
2022/09/12 09:57:45;;;;;;;5.73;1.77;;;27.90;1.00;;;;;;6080186;23;21049;-85
2022/09/12 10:00:24;;;;;;;7.73;2.00;;;29.20;1.00;;;;;;6079085;23;20945;-81
2022/09/12 10:03:39;;;;;;;6.30;1.70;;;29.60;1.00;;;;;;6082484;23;20925;-85
2022/09/12 10:06:21;;;;;;;8.53;1.90;;;30.30;1.00;;;;;;5937115;24;20465;-85
2022/09/12 10:08:49;;;;;;;6.40;1.63;;;30.70;1.00;;;;;;5938365;24;20456;-86
2022/09/12 10:11:21;;;;;;;6.37;2.40;;;29.50;1.00;;;;;;6015731;23;20400;-83
2022/09/12 10:13:55;;;;;;;6.40;1.43;;;28.00;1.00;;;;;;6086553;23;20820;-85
2022/09/12 10:16:26;;;;;;;10.00;2.97;;;26.80;1.00;;;;;;6082958;23;21170;-86
2022/09/12 10:18:56;;;;;;;6.60;2.20;;;25.60;1.00;;;;;;6082411;23;20441;-86
2022/09/12 10:21:30;;;;;;;5.77;2.20;;;24.60;1.00;;;;;;6082424;23;20494;-85
2022/09/12 10:24:03;;;;;;;5.93;2.30;;;24.10;1.00;;;;;;6083131;23;20433;-85
2022/09/12 10:26:39;;;;;;;5.70;1.70;;;25.40;1.00;;;;;;6080170;23;21024;-85
2022/09/12 10:29:18;;;;;;;5.40;1.73;;;27.80;1.00;;;;;;6071225;23;20481;-86
2022/09/12 10:31:50;;;;;;;6.33;2.03;;;30.00;1.00;;;;;;6081506;23;20421;-85
2022/09/12 10:34:29;;;;;;;7.60;4.60;;;31.20;1.00;;;;;;6067669;23;20426;-85
2022/09/12 10:37:04;;;;;;;5.50;1.57;;;32.40;1.00;;;;;;6083247;23;21125;-88
2022/09/12 10:39:32;;;;;;;7.50;2.00;;;33.40;1.00;;;;;;6080251;23;21006;-87
2022/09/12 10:42:01;;;;;;;5.40;1.83;;;33.80;1.00;;;;;;6082817;23;20489;-86
2022/09/12 10:44:34;;;;;;;5.63;1.80;;;33.90;1.00;;;;;;6068744;23;20512;-87
2022/09/12 10:47:20;;;;;;;6.80;2.10;;;34.20;1.00;;;;;;6081993;23;20457;-87
2022/09/12 10:49:53;;;;;;;7.50;1.80;;;34.80;1.00;;;;;;6083501;23;20441;-88
2022/09/12 10:52:23;;;;;;;6.10;1.57;;;35.40;1.00;;;;;;6082772;23;20390;-87
2022/09/12 10:54:50;;;;;;;7.00;2.10;;;35.90;1.00;;;;;;6081348;23;20429;-88
2022/09/12 10:57:33;;;;;;;7.73;2.10;;;36.30;1.00;;;;;;6081531;23;21155;-88
2022/09/12 11:00:09;;;;;;;5.13;1.77;;;36.10;1.00;;;;;;6065616;23;20433;-84
2022/09/12 11:02:58;;;;;;;9.10;2.77;;;35.70;1.00;;;;;;6076638;23;20399;-82
2022/09/12 11:05:50;;;;;;;4.83;1.10;;;35.90;1.00;;;;;;6060333;23;20421;-82
2022/09/12 11:08:42;;;;;;;7.87;2.50;;;36.40;1.00;;;;;;6075342;23;20513;-81
2022/09/12 11:11:28;;;;;;;5.80;1.70;;;36.90;1.00;;;;;;6077750;23;20445;-85
2022/09/12 11:14:12;;;;;;;5.70;2.17;;;37.30;1.00;;;;;;6082798;23;20466;-83
2022/09/12 11:16:49;;;;;;;5.60;1.90;;;37.30;1.00;;;;;;6081611;23;20432;-85
2022/09/12 11:19:49;;;;;;;6.53;2.27;;;36.40;1.00;;;;;;6080678;23;20405;-84
2022/09/12 11:22:36;;;;;;;4.90;1.53;;;35.70;1.00;;;;;;6081162;23;20437;-83
2022/09/12 11:25:28;;;;;;;7.33;2.80;;;35.60;1.00;;;;;;6081148;23;20472;-84
2022/09/12 11:28:25;;;;;;;5.67;1.37;;;33.40;1.00;;;;;;6080262;23;20386;-82
2022/09/12 11:31:06;;;;;;;5.53;1.87;;;31.80;1.00;;;;;;6076900;23;20448;-81
2022/09/12 11:33:42;;;;;;;6.73;2.50;;;32.50;1.00;;;;;;6080788;23;21089;-85
2022/09/12 11:36:22;;;;;;;6.80;2.27;;;33.80;1.00;;;;;;6069029;23;20813;-83
2022/09/12 11:39:02;;;;;;;8.63;2.50;;;33.60;1.00;;;;;;6080801;23;20439;-84
2022/09/12 11:41:35;;;;;;;8.90;2.60;;;33.00;1.00;;;;;;6078877;23;20424;-83
2022/09/12 11:44:20;;;;;;;6.43;2.50;;;31.80;1.00;;;;;;6078256;23;20441;-83
2022/09/12 11:46:47;;;;;;;6.70;2.23;;;31.70;1.00;;;;;;6078011;23;20389;-82
2022/09/12 11:49:25;;;;;;;7.83;2.93;;;32.30;1.00;;;;;;6078621;23;20508;-84
2022/09/12 11:51:57;;;;;;;8.37;3.10;;;32.30;1.00;;;;;;6078107;23;20436;-83
2022/09/12 11:54:34;;;;;;;7.53;2.40;;;33.00;1.00;;;;;;6077575;23;20528;-83
2022/09/12 11:57:17;;;;;;;7.37;1.80;;;34.50;1.00;;;;;;6063762;23;20421;-82
2022/09/12 11:59:50;;;;;;;8.33;2.30;;;34.80;1.00;;;;;;6074886;23;20888;-83
2022/09/12 12:02:26;;;;;;;6.10;1.70;;;34.80;1.00;;;;;;6078329;23;20858;-83
2022/09/12 12:05:08;;;;;;;6.43;1.70;;;34.90;1.00;;;;;;6066331;23;20436;-85
2022/09/12 12:07:41;;;;;;;9.40;2.73;;;35.30;1.00;;;;;;6062310;23;20423;-84
2022/09/12 12:10:27;;;;;;;5.77;2.20;;;35.30;1.00;;;;;;6075785;23;20422;-84
2022/09/12 12:12:56;;;;;;;6.93;2.77;;;35.90;1.00;;;;;;6078093;23;20430;-82
2022/09/12 12:15:25;;;;;;;5.63;1.93;;;36.40;1.00;;;;;;6077833;23;20437;-83
2022/09/12 12:18:08;;;;;;;6.70;1.50;;;36.90;1.00;;;;;;6067342;23;20556;-86
2022/09/12 12:20:36;;;;;;;5.07;1.40;;;37.40;1.00;;;;;;6067717;23;21313;-86
2022/09/12 12:23:05;;;;;;;6.47;2.17;;;37.40;1.00;;;;;;6080676;23;20461;-86
2022/09/12 12:25:53;;;;;;;5.47;1.87;;;37.20;1.00;;;;;;6068901;23;20934;-87
2022/09/12 12:29:03;;;;;;;5.10;1.70;;;37.10;1.00;;;;;;6041332;23;20468;-85
2022/09/12 12:31:33;;;;;;;5.70;1.77;;;36.50;1.00;;;;;;6053766;23;20980;-87
2022/09/12 12:34:28;;;;;;;5.20;2.07;;;35.50;1.00;;;;;;6082676;23;20422;-86
2022/09/12 12:36:55;;;;;;;5.50;2.00;;;35.30;1.00;;;;;;6065880;23;20434;-84
2022/09/12 12:39:59;;;;;;;5.60;2.00;;;35.60;1.00;;;;;;6080203;23;20429;-85
2022/09/12 12:43:05;;;;;;;5.67;2.00;;;35.70;1.00;;;;;;6068019;23;20537;-86
2022/09/12 12:46:08;;;;;;;5.70;2.00;;;36.10;1.00;;;;;;6038975;23;20417;-90
2022/09/12 12:49:05;;;;;;;5.17;1.80;;;36.00;1.00;;;;;;6082484;23;20439;-91
2022/09/12 12:51:56;;;;;;;6.40;2.10;;;35.70;1.00;;;;;;6084021;23;20401;-83
2022/09/12 12:54:32;;;;;;;6.10;1.90;;;34.90;1.00;;;;;;6085748;23;20421;-85
2022/09/12 12:57:20;;;;;;;5.70;2.10;;;33.90;1.00;;;;;;6086383;23;20465;-88
2022/09/12 12:59:53;;;;;;;5.60;1.83;;;33.80;1.00;;;;;;6072260;23;20385;-83
2022/09/12 13:02:29;;;;;;;6.33;2.07;;;33.30;1.00;;;;;;6086310;23;20456;-89
2022/09/12 13:05:01;;;;;;;7.70;2.63;;;33.00;1.00;;;;;;6085928;23;20397;-88
2022/09/12 13:07:32;;;;;;;6.00;1.63;;;32.90;1.00;;;;;;6075608;23;20413;-90
2022/09/12 13:10:28;;;;;;;9.00;2.50;;;32.70;1.00;;;;;;6084657;23;20469;-90
2022/09/12 13:13:07;;;;;;;6.00;2.67;;;33.00;1.00;;;;;;6076093;23;20421;-90
2022/09/12 13:15:55;;;;;;;6.50;2.13;;;33.40;1.00;;;;;;6057576;23;20442;-89
2022/09/12 13:18:46;;;;;;;6.30;1.87;;;33.40;1.00;;;;;;6058277;23;20493;-92
2022/09/12 13:21:32;;;;;;;5.50;2.00;;;33.50;1.00;;;;;;6060014;23;20437;-85
2022/09/12 13:24:22;;;;;;;6.77;1.67;;;33.20;1.00;;;;;;6052501;23;20398;-86
2022/09/12 13:26:54;;;;;;;6.20;1.80;;;33.10;1.00;;;;;;6059344;23;21147;-89
2022/09/12 13:29:23;;;;;;;6.17;2.00;;;31.90;1.00;;;;;;6062784;23;20434;-87
2022/09/12 13:31:57;;;;;;;5.87;1.63;;;31.00;1.00;;;;;;6047932;23;20434;-90
2022/09/12 13:34:28;;;;;;;5.57;1.50;;;29.90;1.00;;;;;;6054827;23;20461;-89
2022/09/12 13:37:29;;;;;;;6.20;1.57;;;29.10;1.00;;;;;;6063999;23;20422;-88
2022/09/12 13:40:04;;;;;;;6.00;1.60;;;28.30;1.00;;;;;;6053913;23;20421;-88
2022/09/12 13:42:41;;;;;;;8.30;1.90;;;27.70;1.00;;;;;;6054446;23;20459;-87
2022/09/12 13:45:15;;;;;;;6.40;1.80;;;27.10;1.00;;;;;;6045771;23;20475;-89
2022/09/12 13:47:47;;;;;;;6.33;1.60;;;26.70;1.00;;;;;;6050698;23;20436;-84